Etusivu
METAR-TAF:

METAR-TAF

Lentoasemat :

Sir Seretse Khaman kansainvälinen lentoasema

Gaborone, Botswana

Leveyspiiri: 24-13S, Pituuspiiri: 025-55E, korkeus merenpinnasta: 1005 m

Tämänhetkinen sää

Tämä raportti tehtiin 1 tunti ja 3 minuuttia sitten, kello 20.00 UTC
Lämpötila 13°C
Kosteus 51%
Ilmanpaine 1023 hPa
Näkyvyys 10 km tai enemmän
ei pilviä alle 1500 m:ssä eikä cumulonimbus-pilviä

METAR: FBSK 222000Z /////KT CAVOK 13/03 Q1023 NOSIG

Aika: 23:03 (21:03 UTC)

Sääennuste

Tämä raportti tehtiin 5 tuntia ja 3 minuuttia sitten, kello 16.00 UTC
Ennuste voimassa 22. päivästä klo 18 UTC - 23. päivään klo 24 UTC
Tuuli 5 kn idästä
Näkyvyys 10 km tai enemmän
ei pilviä alle 1500 m:ssä eikä cumulonimbus-pilviä
Tulossa
23. päivästä klo 15 UTC - 23. päivään klo 17 UTC
Tuuli 6 kn lännestä

TAF: FBSK 221600Z 2218/2324 08005KT CAVOK BECMG 2315/2317 28006KT

Säähavainnot ja -ennusteet yli 4000 lentoasemalta (METAR- ja TAF-raportit).

Käytössä olevat sääasemat on merkitty karttaan keltaisilla ja punaisilla pisteillä.

Aseta hiiri pisteen päälle nähdäksesi sääaseman nimen.

Klikkaa sitten nähdäksesi säähavainnot ja -ennusteet.

Kartan vaihtaminen: klikkaa mustalla rastilla varustettuja vihreitä pisteitä, niin voit zoomata sisään; viivalla varustettua vihreää pistettä, niin voit zoomata ulos tai vihreitä nuolia, niin pääset viereisille kartoille.


METAR-TAF: